Time;durP1;ratioP1;P1;durP2;ratioP2;P2;SDS_P1;SDS_P2;PMS_P1;PMS_P2;Temp;Humidity;BMP_temperature;BMP_pressure;BME280_temperature;BME280_humidity;BME280_pressure;Samples;Min_cycle;Max_cycle;Signal;HPM_P1;HPM_P2
2023/02/28 00:02:55;;;;;;;2.85;1.83;;;14.50;60.70;;;;;;10353927;28;20129;-54
2023/02/28 00:07:56;;;;;;;4.32;2.63;;;14.50;60.40;;;;;;10374572;28;20037;-54
2023/02/28 00:13:05;;;;;;;3.92;2.25;;;14.50;60.30;;;;;;10331500;28;20025;-54
2023/02/28 00:18:06;;;;;;;4.18;2.22;;;14.50;60.60;;;;;;10372167;28;20136;-54
2023/02/28 00:23:07;;;;;;;3.22;1.80;;;14.40;60.60;;;;;;10347109;28;20018;-54
2023/02/28 00:28:08;;;;;;;4.60;2.38;;;14.40;60.80;;;;;;10355877;28;20022;-54
2023/02/28 00:33:09;;;;;;;4.90;2.30;;;14.40;60.80;;;;;;10351824;28;20094;-54
2023/02/28 00:38:09;;;;;;;5.13;2.75;;;14.40;60.90;;;;;;10363180;28;20065;-55
2023/02/28 00:43:10;;;;;;;3.20;1.90;;;14.40;61.00;;;;;;10352625;28;20045;-54
2023/02/28 00:48:11;;;;;;;3.17;1.73;;;14.30;60.90;;;;;;10378160;28;20025;-53
2023/02/28 00:53:11;;;;;;;5.30;2.00;;;14.30;60.90;;;;;;10356184;28;20128;-54
2023/02/28 00:58:12;;;;;;;2.63;1.73;;;14.30;61.00;;;;;;10376882;28;20101;-55
2023/02/28 01:03:13;;;;;;;3.58;2.15;;;14.30;61.00;;;;;;10364864;28;20152;-54
2023/02/28 01:08:14;;;;;;;4.43;2.67;;;14.30;61.00;;;;;;10371176;28;20053;-54
2023/02/28 01:13:16;;;;;;;3.40;2.22;;;14.20;61.00;;;;;;10362144;28;20019;-54
2023/02/28 01:18:17;;;;;;;5.07;2.35;;;14.20;61.00;;;;;;10356331;28;20044;-54
2023/02/28 01:23:21;;;;;;;3.05;1.75;;;14.20;61.00;;;;;;10354159;28;20482;-55
2023/02/28 01:28:22;;;;;;;3.65;1.90;;;14.20;61.00;;;;;;10353445;28;20113;-53
2023/02/28 01:33:22;;;;;;;2.72;1.85;;;14.20;61.00;;;;;;10352662;28;20351;-54
2023/02/28 01:38:23;;;;;;;2.53;1.70;;;14.20;61.00;;;;;;10354717;28;20497;-53
2023/02/28 01:43:57;;;;;;;2.90;1.95;;;14.10;61.00;;;;;;10363880;28;20062;-55
2023/02/28 01:49:11;;;;;;;3.60;1.83;;;14.10;61.10;;;;;;10364331;28;20018;-53
2023/02/28 01:54:20;;;;;;;1.98;1.38;;;14.10;61.00;;;;;;10361429;28;20041;-54
2023/02/28 01:59:32;;;;;;;2.33;2.13;;;14.10;60.80;;;;;;10350510;28;20036;-54
2023/02/28 02:04:39;;;;;;;2.88;1.60;;;14.10;60.60;;;;;;10353967;28;20036;-54
2023/02/28 02:09:40;;;;;;;2.90;1.55;;;14.10;60.90;;;;;;10353429;28;20044;-54
2023/02/28 02:15:08;;;;;;;3.70;1.70;;;14.10;60.90;;;;;;10365238;28;20114;-54
2023/02/28 02:21:12;;;;;;;2.17;1.58;;;14.00;61.00;;;;;;10357340;28;20026;-52
2023/02/28 02:26:40;;;;;;;2.65;1.60;;;14.10;61.00;;;;;;10352777;28;20066;-54
2023/02/28 02:32:23;;;;;;;2.90;1.83;;;14.00;61.00;;;;;;10363116;28;20080;-53
2023/02/28 02:38:07;;;;;;;3.10;1.50;;;14.00;61.00;;;;;;10345274;28;20058;-54
2023/02/28 02:43:19;;;;;;;3.45;1.58;;;14.00;60.90;;;;;;10351940;28;20037;-53
2023/02/28 02:48:25;;;;;;;2.67;1.90;;;14.10;60.40;;;;;;10359840;28;20075;-54
2023/02/28 02:53:51;;;;;;;2.83;1.60;;;14.30;60.10;;;;;;10361915;28;20344;-54
2023/02/28 02:58:56;;;;;;;2.58;1.80;;;14.50;59.30;;;;;;10356366;28;20018;-53
2023/02/28 03:04:03;;;;;;;2.72;1.20;;;14.70;58.60;;;;;;10362896;28;20034;-55
2023/02/28 03:09:04;;;;;;;1.92;1.50;;;14.90;58.10;;;;;;10356849;28;20026;-54
2023/02/28 03:14:32;;;;;;;3.28;1.20;;;15.10;57.50;;;;;;10358517;28;20023;-54
2023/02/28 03:19:47;;;;;;;2.28;1.17;;;15.20;56.90;;;;;;10368803;28;20036;-55
2023/02/28 03:24:56;;;;;;;2.33;1.15;;;15.40;56.40;;;;;;10368249;28;20416;-54
2023/02/28 03:30:06;;;;;;;2.33;1.20;;;15.60;56.00;;;;;;10368741;28;20109;-54
2023/02/28 03:35:30;;;;;;;2.50;1.42;;;15.70;56.20;;;;;;10379298;28;20554;-52
2023/02/28 03:40:33;;;;;;;3.22;1.75;;;15.90;55.30;;;;;;10355057;28;20064;-53
2023/02/28 03:45:37;;;;;;;2.47;1.17;;;16.00;54.80;;;;;;10362952;28;20465;-54
2023/02/28 03:50:45;;;;;;;2.47;1.40;;;16.10;54.80;;;;;;10364199;28;20033;-54
2023/02/28 03:56:18;;;;;;;2.03;1.13;;;16.20;54.60;;;;;;10365538;28;20030;-53
2023/02/28 04:01:41;;;;;;;1.83;1.10;;;16.20;54.50;;;;;;10367822;28;20033;-54
2023/02/28 04:06:42;;;;;;;2.72;1.38;;;16.30;54.30;;;;;;10360814;28;20029;-53
2023/02/28 04:11:51;;;;;;;1.90;1.17;;;16.30;54.30;;;;;;10355269;28;20026;-54
2023/02/28 04:16:52;;;;;;;2.10;0.90;;;16.40;54.30;;;;;;10364817;28;20030;-54
2023/02/28 04:21:53;;;;;;;2.47;1.10;;;16.40;54.30;;;;;;10353498;28;20273;-55
2023/02/28 04:26:57;;;;;;;2.90;1.20;;;16.40;54.10;;;;;;10369924;28;20034;-54
2023/02/28 04:32:00;;;;;;;2.78;1.40;;;16.50;54.10;;;;;;10353487;28;20014;-54
2023/02/28 04:37:01;;;;;;;1.92;1.02;;;16.40;54.00;;;;;;10327770;28;20046;-54
2023/02/28 04:42:02;;;;;;;2.35;0.90;;;16.50;53.90;;;;;;10363676;28;20021;-54
2023/02/28 04:47:03;;;;;;;1.70;1.10;;;16.50;53.80;;;;;;10360432;28;20451;-55
2023/02/28 04:52:04;;;;;;;1.50;0.80;;;16.60;53.70;;;;;;10364487;28;20021;-55
2023/02/28 04:57:05;;;;;;;1.67;0.95;;;16.70;53.70;;;;;;10351288;28;20037;-54
2023/02/28 05:02:06;;;;;;;1.23;0.70;;;16.70;53.70;;;;;;10365397;28;20033;-55
2023/02/28 05:07:07;;;;;;;3.17;1.17;;;16.70;53.80;;;;;;10364130;28;20092;-53
2023/02/28 05:12:09;;;;;;;3.97;0.93;;;16.70;53.80;;;;;;10364002;28;20037;-54
2023/02/28 05:17:10;;;;;;;2.30;1.10;;;16.70;53.80;;;;;;10356179;28;20034;-54
2023/02/28 05:22:16;;;;;;;1.42;0.90;;;16.70;54.00;;;;;;10346364;28;20033;-53
2023/02/28 05:27:17;;;;;;;2.88;1.10;;;16.70;54.30;;;;;;10343050;28;20484;-54
2023/02/28 05:32:18;;;;;;;2.30;1.00;;;16.80;54.40;;;;;;10343108;28;20026;-53
2023/02/28 05:37:18;;;;;;;1.65;1.00;;;16.70;55.20;;;;;;10343902;28;20038;-54
2023/02/28 05:42:19;;;;;;;2.55;1.17;;;16.80;54.90;;;;;;10342859;28;20129;-54
2023/02/28 05:47:20;;;;;;;13.73;1.58;;;16.80;54.80;;;;;;10348053;28;20314;-53
2023/02/28 05:52:21;;;;;;;3.17;0.95;;;16.90;54.60;;;;;;10342371;28;20092;-53
2023/02/28 05:57:22;;;;;;;7.75;1.08;;;16.90;55.10;;;;;;10361107;28;20033;-55
2023/02/28 06:02:23;;;;;;;8.68;2.30;;;17.00;55.80;;;;;;10359985;28;20516;-56
2023/02/28 06:07:24;;;;;;;6.13;1.52;;;17.10;56.20;;;;;;10375305;28;20117;-53
2023/02/28 06:12:24;;;;;;;5.63;1.70;;;17.00;55.80;;;;;;10345397;28;20437;-53
2023/02/28 06:17:25;;;;;;;7.97;1.55;;;17.00;56.20;;;;;;10339759;28;20560;-54
2023/02/28 06:22:26;;;;;;;35.72;3.50;;;17.00;56.60;;;;;;10348654;28;20029;-53
2023/02/28 06:27:26;;;;;;;8.38;2.17;;;16.90;56.60;;;;;;10351590;28;20113;-54
2023/02/28 06:32:27;;;;;;;11.95;2.50;;;17.10;56.40;;;;;;10345965;28;20376;-54
2023/02/28 06:37:28;;;;;;;16.25;2.58;;;17.10;56.20;;;;;;10368914;28;20042;-53
2023/02/28 06:42:30;;;;;;;18.13;3.08;;;17.00;56.50;;;;;;10368099;28;20573;-55
2023/02/28 06:47:31;;;;;;;16.90;2.75;;;16.90;56.60;;;;;;10367691;28;20088;-55
2023/02/28 06:52:32;;;;;;;17.02;2.20;;;17.10;55.80;;;;;;10358131;28;20018;-55
2023/02/28 06:57:35;;;;;;;10.63;2.00;;;17.00;56.40;;;;;;10347642;28;20019;-54
2023/02/28 07:02:37;;;;;;;16.25;2.47;;;17.00;56.20;;;;;;10346680;28;20037;-52
2023/02/28 07:07:40;;;;;;;13.27;2.58;;;16.90;56.40;;;;;;10347280;28;20030;-54
2023/02/28 07:12:41;;;;;;;15.40;2.78;;;16.80;56.80;;;;;;10350682;28;20080;-54
2023/02/28 07:17:41;;;;;;;13.55;2.30;;;16.80;56.90;;;;;;10356049;28;20065;-55
2023/02/28 07:22:42;;;;;;;10.85;2.33;;;16.60;56.90;;;;;;10357293;28;20399;-54
2023/02/28 07:27:43;;;;;;;9.75;2.25;;;16.60;56.90;;;;;;10361499;28;20583;-54
2023/02/28 07:32:44;;;;;;;13.45;2.10;;;16.60;57.30;;;;;;10360509;28;20030;-55
2023/02/28 07:37:44;;;;;;;8.98;2.35;;;16.60;57.50;;;;;;10348168;28;20053;-53
2023/02/28 07:42:45;;;;;;;12.88;2.20;;;16.70;57.40;;;;;;10351316;28;20050;-55
2023/02/28 07:47:46;;;;;;;11.57;2.03;;;16.60;57.40;;;;;;10325085;28;20104;-55
2023/02/28 07:52:46;;;;;;;12.63;2.15;;;16.50;57.90;;;;;;10363447;28;20034;-54
2023/02/28 07:57:47;;;;;;;10.90;1.70;;;16.40;57.80;;;;;;10349242;28;20537;-55
2023/02/28 08:02:48;;;;;;;9.35;2.53;;;16.50;57.40;;;;;;10347531;28;20073;-54
2023/02/28 08:07:53;;;;;;;9.00;1.55;;;16.50;57.10;;;;;;10361725;28;20540;-55
2023/02/28 08:12:53;;;;;;;13.85;1.60;;;16.50;57.00;;;;;;10355380;28;20104;-55
2023/02/28 08:17:56;;;;;;;9.50;1.92;;;16.40;57.00;;;;;;10356901;28;20197;-55
2023/02/28 08:22:56;;;;;;;6.53;1.50;;;16.30;57.20;;;;;;10347390;28;20026;-55
2023/02/28 08:27:57;;;;;;;9.45;1.50;;;16.10;57.40;;;;;;10344813;28;20593;-55
2023/02/28 08:32:58;;;;;;;6.22;1.00;;;16.10;57.30;;;;;;10333606;28;20018;-55
2023/02/28 08:37:58;;;;;;;4.32;1.20;;;16.20;57.10;;;;;;10377974;28;20050;-53
2023/02/28 08:43:00;;;;;;;5.00;0.98;;;16.10;57.00;;;;;;10356940;28;20156;-55
2023/02/28 08:48:00;;;;;;;3.00;1.50;;;16.10;56.70;;;;;;10365250;28;20109;-55
2023/02/28 08:53:01;;;;;;;4.38;1.40;;;16.10;56.40;;;;;;10334963;28;20036;-55
2023/02/28 08:58:02;;;;;;;6.00;1.27;;;16.00;57.50;;;;;;10342377;28;20025;-53
2023/02/28 09:03:02;;;;;;;2.55;0.80;;;15.90;58.00;;;;;;10343931;28;20050;-55
2023/02/28 09:08:03;;;;;;;2.80;1.00;;;15.70;58.60;;;;;;10350470;28;20064;-54
2023/02/28 09:13:06;;;;;;;4.18;0.77;;;15.60;58.70;;;;;;10345752;28;20018;-55
2023/02/28 09:18:06;;;;;;;8.95;1.63;;;15.50;58.90;;;;;;10347094;28;20021;-55
2023/02/28 09:23:09;;;;;;;2.25;1.00;;;15.50;59.10;;;;;;10359530;28;20461;-53
2023/02/28 09:28:11;;;;;;;2.95;0.88;;;15.50;59.30;;;;;;10355655;28;20037;-53
2023/02/28 09:33:13;;;;;;;3.13;0.90;;;15.50;59.30;;;;;;10343690;28;20037;-54
2023/02/28 09:38:14;;;;;;;5.97;1.35;;;15.40;59.40;;;;;;10346363;28;20046;-53
2023/02/28 09:43:17;;;;;;;4.40;1.02;;;15.40;59.50;;;;;;10361588;28;20529;-54
2023/02/28 09:48:25;;;;;;;3.63;0.85;;;15.40;59.60;;;;;;10358614;28;20693;-53
2023/02/28 09:53:39;;;;;;;2.40;0.70;;;15.40;59.80;;;;;;10358374;28;20029;-53
2023/02/28 09:59:11;;;;;;;3.10;1.08;;;15.40;59.70;;;;;;10353865;28;20025;-53
2023/02/28 10:04:56;;;;;;;2.50;1.20;;;15.50;59.60;;;;;;10354491;28;20046;-54
2023/02/28 10:10:01;;;;;;;2.67;0.90;;;15.50;59.50;;;;;;10368643;28;20033;-55
2023/02/28 10:15:04;;;;;;;2.08;0.70;;;15.50;59.50;;;;;;10348741;28;20069;-54
2023/02/28 10:20:13;;;;;;;5.10;0.85;;;15.50;59.50;;;;;;10348753;28;20069;-53
2023/02/28 10:25:27;;;;;;;1.85;0.75;;;15.50;59.50;;;;;;10358866;28;20034;-54
2023/02/28 10:30:28;;;;;;;2.25;0.88;;;15.50;59.60;;;;;;10359817;28;20030;-54
2023/02/28 10:35:29;;;;;;;2.88;0.55;;;15.50;59.70;;;;;;10356059;28;20062;-53
2023/02/28 10:40:35;;;;;;;1.45;0.65;;;15.50;59.80;;;;;;10362219;28;20144;-53
2023/02/28 10:45:37;;;;;;;2.45;1.38;;;15.50;59.80;;;;;;10363704;28;20069;-54
2023/02/28 10:50:46;;;;;;;5.28;0.60;;;15.50;59.80;;;;;;10365225;28;20036;-54
2023/02/28 10:56:08;;;;;;;1.90;0.73;;;15.50;60.00;;;;;;10342485;28;20033;-55
2023/02/28 11:01:19;;;;;;;1.00;0.40;;;15.50;59.90;;;;;;10349837;28;20025;-53
2023/02/28 11:06:31;;;;;;;1.05;0.60;;;15.50;60.00;;;;;;10353427;28;20069;-53
2023/02/28 11:11:46;;;;;;;1.35;0.68;;;15.50;60.00;;;;;;10353695;28;20507;-54
2023/02/28 11:16:48;;;;;;;0.93;0.40;;;15.60;60.00;;;;;;10351457;28;20022;-53
2023/02/28 11:21:58;;;;;;;4.40;0.88;;;15.50;59.90;;;;;;10340940;28;20536;-54
2023/02/28 11:26:59;;;;;;;0.75;0.57;;;15.60;59.90;;;;;;10352086;28;20046;-54
2023/02/28 11:32:21;;;;;;;2.85;0.90;;;15.60;60.00;;;;;;10358278;28;20412;-55
2023/02/28 11:37:22;;;;;;;1.48;0.50;;;15.60;60.00;;;;;;10358047;28;20046;-53
2023/02/28 11:42:43;;;;;;;1.75;0.80;;;15.60;60.00;;;;;;10367449;28;20038;-54
2023/02/28 11:48:05;;;;;;;3.42;0.82;;;15.60;59.90;;;;;;10356656;28;20497;-55
2023/02/28 11:53:45;;;;;;;5.47;0.90;;;15.60;59.90;;;;;;10366011;28;20030;-54
2023/02/28 11:59:19;;;;;;;3.07;0.60;;;15.70;60.00;;;;;;10354623;28;20096;-52
2023/02/28 12:05:08;;;;;;;6.75;2.95;;;15.70;59.70;;;;;;10355284;28;20041;-50
2023/02/28 12:10:45;;;;;;;5.35;1.60;;;15.70;59.40;;;;;;10346709;28;20018;-52
2023/02/28 12:16:09;;;;;;;4.45;1.85;;;15.70;59.10;;;;;;10358741;28;20034;-50
2023/02/28 12:21:36;;;;;;;3.90;1.63;;;15.70;58.90;;;;;;10375198;28;20045;-52
2023/02/28 12:26:46;;;;;;;7.00;1.55;;;15.70;58.40;;;;;;10354789;28;20038;-52
2023/02/28 12:32:23;;;;;;;6.43;1.67;;;15.70;58.50;;;;;;10352329;28;20015;-52
2023/02/28 12:37:38;;;;;;;8.20;2.35;;;15.70;58.80;;;;;;10353260;28;20053;-52
2023/02/28 12:42:46;;;;;;;6.28;1.88;;;15.70;59.50;;;;;;10359787;28;20026;-54
2023/02/28 12:48:03;;;;;;;6.68;1.58;;;15.70;59.60;;;;;;10363216;28;20037;-55
2023/02/28 12:53:41;;;;;;;10.57;1.83;;;15.70;59.80;;;;;;10363852;28;20167;-51
2023/02/28 12:58:50;;;;;;;7.90;2.03;;;15.70;59.90;;;;;;10356657;28;20018;-52
2023/02/28 13:04:43;;;;;;;6.43;1.83;;;15.80;59.80;;;;;;10353387;28;20129;-53
2023/02/28 13:09:54;;;;;;;4.30;1.48;;;15.70;60.40;;;;;;10349685;28;20092;-52
2023/02/28 13:15:27;;;;;;;7.20;1.45;;;15.80;60.60;;;;;;10340850;28;20026;-50
2023/02/28 13:20:46;;;;;;;9.13;1.98;;;15.80;60.30;;;;;;10346669;28;20110;-49
2023/02/28 13:25:51;;;;;;;9.37;1.97;;;16.10;59.90;;;;;;10351216;28;20045;-51
2023/02/28 13:30:52;;;;;;;11.90;2.38;;;16.00;60.40;;;;;;10346559;28;20370;-53
2023/02/28 13:36:18;;;;;;;8.20;1.80;;;15.90;61.90;;;;;;10353261;28;20045;-52
2023/02/28 13:41:30;;;;;;;9.30;1.65;;;16.00;62.40;;;;;;10361009;28;20054;-54
2023/02/28 13:46:38;;;;;;;7.72;1.65;;;16.00;62.80;;;;;;10360953;28;20116;-47
2023/02/28 13:51:45;;;;;;;8.90;2.10;;;15.90;63.60;;;;;;10362049;28;20054;-52
2023/02/28 13:57:23;;;;;;;9.52;1.92;;;16.00;63.80;;;;;;10355580;28;20068;-50
2023/02/28 14:02:54;;;;;;;14.70;2.35;;;15.90;63.60;;;;;;10359033;28;20781;-54
2023/02/28 14:08:13;;;;;;;6.10;1.70;;;15.90;63.30;;;;;;10342444;28;20037;-51
2023/02/28 14:13:44;;;;;;;6.68;2.30;;;15.80;62.80;;;;;;10358320;28;20037;-54
2023/02/28 14:19:01;;;;;;;4.47;1.77;;;15.80;62.40;;;;;;10357628;28;20041;-52
2023/02/28 14:24:35;;;;;;;7.88;1.70;;;15.80;62.20;;;;;;10347270;28;20030;-51
2023/02/28 14:30:04;;;;;;;4.78;1.20;;;15.80;62.00;;;;;;10358121;28;20058;-51
2023/02/28 14:35:48;;;;;;;10.85;1.73;;;15.80;61.80;;;;;;10346535;28;20049;-51
2023/02/28 14:40:52;;;;;;;3.22;1.13;;;15.80;61.60;;;;;;10369838;28;20390;-53
2023/02/28 14:46:01;;;;;;;4.60;1.40;;;15.80;61.40;;;;;;10355184;28;20038;-51
2023/02/28 14:51:02;;;;;;;3.78;1.45;;;15.80;61.20;;;;;;10374704;28;20073;-53
2023/02/28 14:56:03;;;;;;;3.20;1.23;;;15.80;61.10;;;;;;10368886;28;20500;-51
2023/02/28 15:01:04;;;;;;;3.25;1.00;;;15.70;60.90;;;;;;10346940;28;20034;-52
2023/02/28 15:06:14;;;;;;;3.65;1.23;;;15.70;60.90;;;;;;10351353;28;20418;-53
2023/02/28 15:11:22;;;;;;;;;;;15.70;61.00;;;;;;10362071;28;20037;-54
2023/02/28 15:16:32;;;;;;;3.28;1.00;;;15.70;60.90;;;;;;10351049;28;19917;-51
2023/02/28 15:21:41;;;;;;;1.80;0.80;;;15.70;60.90;;;;;;10363389;28;20755;-55
2023/02/28 15:26:49;;;;;;;3.30;0.97;;;15.70;60.90;;;;;;10357497;28;20030;-53
2023/02/28 15:32:03;;;;;;;4.70;1.77;;;15.70;60.80;;;;;;10350912;28;20461;-51
2023/02/28 15:37:52;;;;;;;1.73;1.00;;;15.60;60.80;;;;;;10366718;28;20621;-53
2023/02/28 15:43:03;;;;;;;4.53;1.17;;;15.60;60.70;;;;;;10359282;28;20497;-53
2023/02/28 15:48:52;;;;;;;3.38;1.30;;;15.60;60.80;;;;;;10351889;28;20029;-54
2023/02/28 15:54:00;;;;;;;2.42;1.15;;;15.50;60.70;;;;;;10374827;28;20065;-52
2023/02/28 15:59:05;;;;;;;2.33;0.82;;;15.50;60.90;;;;;;10347478;28;20019;-54
2023/02/28 16:04:19;;;;;;;2.58;1.05;;;15.50;60.80;;;;;;10347821;28;20132;-54
2023/02/28 16:09:19;;;;;;;7.63;1.20;;;15.50;60.80;;;;;;10343646;28;20168;-52
2023/02/28 16:14:32;;;;;;;3.90;1.10;;;15.40;60.80;;;;;;10376139;28;20144;-53
2023/02/28 16:19:33;;;;;;;1.67;0.80;;;15.30;60.80;;;;;;10365323;28;20033;-53
2023/02/28 16:24:33;;;;;;;2.45;1.00;;;15.30;60.80;;;;;;10372260;28;20385;-54
2023/02/28 16:29:36;;;;;;;7.93;1.55;;;15.30;60.80;;;;;;10358316;28;20024;-53
2023/02/28 16:34:37;;;;;;;8.40;1.45;;;15.30;60.70;;;;;;10352078;28;20042;-54
2023/02/28 16:39:38;;;;;;;7.22;1.92;;;15.30;60.70;;;;;;10352901;28;20481;-52
2023/02/28 16:44:40;;;;;;;8.50;2.13;;;15.20;60.50;;;;;;10365981;28;20084;-51
2023/02/28 16:49:42;;;;;;;17.55;3.92;;;15.20;59.80;;;;;;10345901;28;20044;-49
2023/02/28 16:54:43;;;;;;;11.68;2.28;;;15.30;60.30;;;;;;10364847;28;20062;-53
2023/02/28 16:59:44;;;;;;;6.80;1.70;;;15.30;59.70;;;;;;10363127;28;20576;-48
2023/02/28 17:08:23;;;;;;;18.38;5.85;;;15.40;59.30;;;;;;10504848;27;20163;-54
2023/02/28 17:13:23;;;;;;;8.85;2.95;;;15.80;65.10;;;;;;10481477;28;20404;-54
2023/02/28 17:18:24;;;;;;;12.38;3.20;;;15.70;61.90;;;;;;10480716;28;20103;-52
2023/02/28 17:23:25;;;;;;;4.80;1.90;;;15.60;60.20;;;;;;10478992;28;20087;-50
2023/02/28 17:28:25;;;;;;;14.40;3.35;;;15.60;60.20;;;;;;10470201;28;20102;-51
2023/02/28 17:33:26;;;;;;;8.85;2.65;;;15.80;59.60;;;;;;10480230;28;20108;-54
2023/02/28 17:38:27;;;;;;;17.70;4.03;;;15.90;58.70;;;;;;10481147;28;20368;-53
2023/02/28 17:43:28;;;;;;;12.15;2.95;;;15.60;59.60;;;;;;10476094;28;20069;-55
2023/02/28 17:48:29;;;;;;;14.13;3.72;;;15.70;58.80;;;;;;10479592;28;21027;-55
2023/02/28 17:53:30;;;;;;;14.48;3.58;;;16.10;59.00;;;;;;10479530;28;20365;-55
2023/02/28 17:58:31;;;;;;;18.05;5.72;;;16.40;57.90;;;;;;10474331;28;20017;-54
2023/02/28 18:03:31;;;;;;;21.05;3.65;;;16.60;57.50;;;;;;10451681;28;20009;-54
2023/02/28 18:08:35;;;;;;;25.15;4.20;;;16.50;58.00;;;;;;10494514;28;20118;-54
2023/02/28 18:13:35;;;;;;;15.65;3.47;;;16.50;57.30;;;;;;10515829;28;20024;-54
2023/02/28 18:18:37;;;;;;;10.85;2.38;;;16.30;57.90;;;;;;10480211;28;20047;-53
2023/02/28 18:23:46;;;;;;;15.73;2.85;;;16.20;58.20;;;;;;10458464;28;20028;-53
2023/02/28 18:28:47;;;;;;;11.53;2.60;;;16.20;58.60;;;;;;10462883;28;20025;-55
2023/02/28 18:33:50;;;;;;;7.05;2.53;;;16.30;57.80;;;;;;10463716;28;20674;-55
2023/02/28 18:38:51;;;;;;;6.47;2.97;;;16.40;57.70;;;;;;10454071;28;20025;-54
2023/02/28 18:43:53;;;;;;;4.97;2.47;;;16.40;57.70;;;;;;10463316;28;20021;-52
2023/02/28 18:48:53;;;;;;;8.07;2.03;;;16.30;57.60;;;;;;10481887;28;20016;-53
2023/02/28 18:53:54;;;;;;;5.82;1.73;;;16.40;57.40;;;;;;10457404;28;20472;-56
2023/02/28 18:58:55;;;;;;;6.57;1.60;;;16.40;57.00;;;;;;10472009;28;20487;-52
2023/02/28 19:03:59;;;;;;;5.47;1.90;;;16.40;57.00;;;;;;10464228;28;20040;-51
2023/02/28 19:09:02;;;;;;;5.03;2.20;;;16.40;57.40;;;;;;10467480;28;20017;-53
2023/02/28 19:14:03;;;;;;;4.80;1.45;;;16.50;57.70;;;;;;10453283;28;20087;-53
2023/02/28 19:19:04;;;;;;;4.97;1.60;;;16.60;56.90;;;;;;10462086;28;20029;-51
2023/02/28 19:24:05;;;;;;;5.97;1.67;;;16.70;56.40;;;;;;10462072;28;20021;-54
2023/02/28 19:29:06;;;;;;;6.38;1.35;;;16.70;56.70;;;;;;10463836;28;20021;-54
2023/02/28 19:34:06;;;;;;;9.48;1.98;;;16.70;56.60;;;;;;10473379;28;20112;-53
2023/02/28 19:39:07;;;;;;;6.30;1.80;;;16.80;56.60;;;;;;10490219;28;20016;-53
2023/02/28 19:44:08;;;;;;;4.85;1.35;;;16.80;56.60;;;;;;10489893;28;20032;-55
2023/02/28 19:49:08;;;;;;;7.10;1.50;;;16.80;56.40;;;;;;10482420;28;20036;-55
2023/02/28 19:54:09;;;;;;;3.67;1.00;;;16.70;56.30;;;;;;10463968;28;20118;-54
2023/02/28 19:59:10;;;;;;;2.70;0.90;;;16.70;56.70;;;;;;10466142;28;20111;-55
2023/02/28 20:04:10;;;;;;;3.88;1.20;;;16.70;56.70;;;;;;10463689;28;20475;-55
2023/02/28 20:09:11;;;;;;;4.97;1.02;;;16.70;56.60;;;;;;10465236;28;20108;-53
2023/02/28 20:14:12;;;;;;;3.03;1.10;;;16.70;56.10;;;;;;10447298;28;20108;-52
2023/02/28 20:19:13;;;;;;;4.82;1.50;;;16.90;56.40;;;;;;10456894;28;20086;-52
2023/02/28 20:24:14;;;;;;;5.93;2.13;;;16.90;56.40;;;;;;10475633;28;20090;-54
2023/02/28 20:29:14;;;;;;;3.55;1.10;;;16.90;56.50;;;;;;10454008;28;20422;-54
2023/02/28 20:34:16;;;;;;;4.45;1.27;;;16.90;56.60;;;;;;10476095;28;20109;-52
2023/02/28 20:39:17;;;;;;;3.35;1.00;;;16.80;56.40;;;;;;10462661;28;20465;-55
2023/02/28 20:44:18;;;;;;;4.75;1.10;;;16.60;56.60;;;;;;10483711;28;20028;-55
2023/02/28 20:49:19;;;;;;;3.97;1.20;;;16.50;56.90;;;;;;10484025;28;20062;-54
2023/02/28 20:54:20;;;;;;;1.70;1.08;;;16.40;57.10;;;;;;10447889;28;20029;-54
2023/02/28 20:59:21;;;;;;;4.03;2.05;;;16.20;57.30;;;;;;10465150;28;20554;-55
2023/02/28 21:04:22;;;;;;;3.72;2.05;;;16.10;57.60;;;;;;10450145;28;20044;-55
2023/02/28 21:09:23;;;;;;;4.00;2.15;;;16.00;57.80;;;;;;10458658;28;20555;-55
2023/02/28 21:14:24;;;;;;;5.63;2.03;;;15.90;58.10;;;;;;10473314;28;20067;-54
2023/02/28 21:19:24;;;;;;;3.28;1.38;;;15.80;58.30;;;;;;10485461;28;20112;-54
2023/02/28 21:24:25;;;;;;;3.97;1.60;;;15.80;58.60;;;;;;10469485;28;20029;-54
2023/02/28 21:29:26;;;;;;;3.70;1.38;;;15.70;58.80;;;;;;10459899;28;20016;-55
2023/02/28 21:34:27;;;;;;;4.05;1.60;;;15.60;59.10;;;;;;10478493;28;20031;-55
2023/02/28 21:39:28;;;;;;;3.78;1.63;;;15.50;59.50;;;;;;10447540;28;20028;-53
2023/02/28 21:44:33;;;;;;;4.13;1.88;;;15.50;59.80;;;;;;10448178;28;20025;-54
2023/02/28 21:49:33;;;;;;;3.22;1.60;;;15.40;59.60;;;;;;10479477;28;20028;-55
2023/02/28 21:54:34;;;;;;;3.00;1.60;;;15.30;59.20;;;;;;10476140;28;20025;-55
2023/02/28 21:59:35;;;;;;;4.25;1.65;;;15.30;59.60;;;;;;10464737;28;20086;-55
2023/02/28 22:04:37;;;;;;;3.65;1.63;;;15.20;60.20;;;;;;10488888;28;20120;-54
2023/02/28 22:09:37;;;;;;;4.43;1.83;;;15.20;59.50;;;;;;10466492;28;20021;-55
2023/02/28 22:14:40;;;;;;;3.60;1.90;;;15.10;59.80;;;;;;10457388;28;20107;-55
2023/02/28 22:19:41;;;;;;;2.55;1.58;;;15.10;59.90;;;;;;10473998;28;20017;-55
2023/02/28 22:24:42;;;;;;;2.22;1.42;;;15.00;60.00;;;;;;10461582;28;20036;-55
2023/02/28 22:29:42;;;;;;;3.30;2.20;;;15.00;60.80;;;;;;10450465;28;20052;-54
2023/02/28 22:34:43;;;;;;;4.35;1.85;;;15.00;60.20;;;;;;10451508;28;20101;-55
2023/02/28 22:39:44;;;;;;;3.35;1.90;;;14.90;60.10;;;;;;10451067;28;20460;-55
2023/02/28 22:44:45;;;;;;;3.85;1.92;;;14.90;60.20;;;;;;10476905;28;20056;-53
2023/02/28 22:49:46;;;;;;;2.78;1.60;;;14.90;60.10;;;;;;10450308;28;20120;-56
2023/02/28 22:54:50;;;;;;;3.78;1.67;;;14.80;60.10;;;;;;10468005;28;20640;-54
2023/02/28 22:59:51;;;;;;;4.35;1.60;;;14.80;60.10;;;;;;10479012;28;20090;-54
2023/02/28 23:04:54;;;;;;;2.38;1.38;;;14.80;60.20;;;;;;10485037;28;20116;-55
2023/02/28 23:09:55;;;;;;;4.65;2.08;;;14.80;60.20;;;;;;10458664;28;20115;-55
2023/02/28 23:14:55;;;;;;;3.22;1.50;;;14.80;60.10;;;;;;10476988;28;20020;-54
2023/02/28 23:19:56;;;;;;;3.17;1.95;;;14.70;60.10;;;;;;10468376;28;20029;-55
2023/02/28 23:24:57;;;;;;;3.05;1.60;;;14.70;60.10;;;;;;10482422;28;20029;-54
2023/02/28 23:29:57;;;;;;;2.35;1.15;;;14.70;60.10;;;;;;10465663;28;20033;-55
2023/02/28 23:35:01;;;;;;;2.88;1.75;;;14.70;60.20;;;;;;10459248;28;20078;-54
2023/02/28 23:40:04;;;;;;;2.72;1.80;;;14.60;60.10;;;;;;10472548;28;20028;-55
2023/02/28 23:45:06;;;;;;;4.78;1.50;;;14.60;60.00;;;;;;10464036;28;20634;-56
2023/02/28 23:50:08;;;;;;;2.35;1.00;;;14.60;60.10;;;;;;10481036;28;20019;-55
2023/02/28 23:55:09;;;;;;;2.35;1.65;;;14.60;60.10;;;;;;10457074;28;20021;-55
